FDX9900 LFPG-LRTR

Flight info

Callsign FDX9900
Flight time 1h 52m
Altitude 35000
Route LANV6H LANVI DCT ERKIR DCT INGID DCT PIBIP DCT NIKAB DCT KEROP
Aircraft B77L/H-SDE1E2E3FGHIJ2J3J4J5M1RWXY/LB1D1

Departure

Time 2026-04-07 21:04
Airport Charles de Gaulle International Airport (LFPG)

Arrival

Time 2026-04-07 22:57
Airport Timișoara Traian Vuia International Airport (LRTR)
Time Latitude Longitude Altitude Speed Heading
2026-04-07 20:49 48.99434 2.53189 359 ft 0 kts 265°
2026-04-07 20:56 48.99434 2.53190 359 ft 0 kts 265°
2026-04-07 20:56 48.99435 2.53197 367 ft 1 kts 265°
2026-04-07 20:56 48.99435 2.53206 366 ft 0 kts 265°
2026-04-07 20:57 48.99436 2.53215 365 ft 0 kts 265°
2026-04-07 20:57 48.99436 2.53224 361 ft 1 kts 265°
2026-04-07 20:57 48.99437 2.53237 362 ft 3 kts 265°
2026-04-07 20:57 48.99439 2.53268 365 ft 3 kts 264°
2026-04-07 20:58 48.99437 2.53307 365 ft 4 kts 308°
2026-04-07 20:58 48.99419 2.53327 367 ft 2 kts 354°
2026-04-07 20:58 48.99418 2.53328 367 ft 0 kts 354°
2026-04-07 20:59 48.99424 2.53327 368 ft 3 kts 354°
2026-04-07 20:59 48.99460 2.53322 364 ft 5 kts 355°
2026-04-07 20:59 48.99497 2.53317 362 ft 5 kts 355°
2026-04-07 20:59 48.99534 2.53311 365 ft 5 kts 355°
2026-04-07 21:00 48.99571 2.53315 367 ft 5 kts 13°
2026-04-07 21:00 48.99650 2.53449 366 ft 13 kts 42°
2026-04-07 21:00 48.99729 2.53550 368 ft 17 kts 40°
2026-04-07 21:01 48.99800 2.53701 365 ft 18 kts 77°
2026-04-07 21:01 48.99811 2.53895 363 ft 18 kts 85°
2026-04-07 21:01 48.99822 2.54089 359 ft 18 kts 85°
2026-04-07 21:01 48.99833 2.54283 359 ft 18 kts 86°
2026-04-07 21:02 48.99842 2.54477 362 ft 18 kts 85°
2026-04-07 21:02 48.99853 2.54671 363 ft 18 kts 84°
2026-04-07 21:02 48.99798 2.54829 366 ft 18 kts 154°
2026-04-07 21:02 48.99713 2.54969 365 ft 18 kts 118°
2026-04-07 21:03 48.99657 2.55144 365 ft 18 kts 115°
2026-04-07 21:03 48.99600 2.55314 361 ft 18 kts 124°
2026-04-07 21:03 48.99581 2.55503 360 ft 18 kts 85°
2026-04-07 21:03 48.99598 2.55811 364 ft 50 kts 85°
2026-04-07 21:04 48.99644 2.56682 364 ft 113 kts 85°
2026-04-07 21:04 48.99724 2.58143 365 ft 161 kts 85°
2026-04-07 21:04 48.99815 2.59960 677 ft 171 kts 86°
2026-04-07 21:04 48.99902 2.61798 1184 ft 175 kts 88°
2026-04-07 21:05 48.99998 2.63660 1767 ft 176 kts 88°
2026-04-07 21:05 49.00101 2.65513 2385 ft 177 kts 89°
2026-04-07 21:05 49.00204 2.67420 2842 ft 185 kts 88°
2026-04-07 21:05 49.00312 2.69381 3355 ft 187 kts 87°
2026-04-07 21:06 49.00417 2.71354 3897 ft 187 kts 86°
2026-04-07 21:06 49.00533 2.73420 4165 ft 206 kts 85°
2026-04-07 21:06 49.00656 2.75713 4337 ft 230 kts 85°
2026-04-07 21:06 49.00741 2.78276 4528 ft 254 kts 94°
2026-04-07 21:07 49.00496 2.80997 5040 ft 265 kts 99°
2026-04-07 21:07 49.00157 2.83793 5671 ft 272 kts 99°
2026-04-07 21:07 48.99826 2.86649 6420 ft 275 kts 99°
2026-04-07 21:07 48.99511 2.89533 7169 ft 278 kts 98°
2026-04-07 21:08 48.99202 2.92446 7899 ft 280 kts 98°
2026-04-07 21:08 48.98893 2.95395 8621 ft 283 kts 98°
2026-04-07 21:08 48.98615 2.98377 9336 ft 286 kts 96°
2026-04-07 21:08 48.98365 3.01395 10058 ft 289 kts 96°
2026-04-07 21:09 48.98115 3.04463 10620 ft 298 kts 96°
2026-04-07 21:09 48.97850 3.07707 10809 ft 321 kts 96°
2026-04-07 21:09 48.97562 3.11209 11003 ft 345 kts 96°
2026-04-07 21:09 48.97249 3.14955 11216 ft 367 kts 96°
2026-04-07 21:10 48.97032 3.17542 11559 ft 376 kts 96°
2026-04-07 21:10 48.96694 3.21533 12227 ft 385 kts 97°
2026-04-07 21:10 48.96348 3.25597 13080 ft 390 kts 97°
2026-04-07 21:10 48.95995 3.29716 13915 ft 396 kts 97°
2026-04-07 21:11 48.95636 3.33900 14652 ft 402 kts 98°
2026-04-07 21:11 48.95270 3.38133 15409 ft 406 kts 98°
2026-04-07 21:11 48.94899 3.42421 16167 ft 411 kts 98°
2026-04-07 21:11 48.94523 3.46746 16915 ft 416 kts 98°
2026-04-07 21:12 48.94140 3.51133 17636 ft 421 kts 98°
2026-04-07 21:12 48.93753 3.55573 18326 ft 426 kts 97°
2026-04-07 21:12 48.93450 3.60095 18946 ft 432 kts 96°
2026-04-07 21:12 48.93216 3.64666 19610 ft 435 kts 95°
2026-04-07 21:13 48.93001 3.69262 20306 ft 438 kts 95°
2026-04-07 21:13 48.92780 3.73897 20984 ft 441 kts 95°
2026-04-07 21:13 48.92546 3.78563 21621 ft 444 kts 95°
2026-04-07 21:13 48.92299 3.83263 22258 ft 448 kts 95°
2026-04-07 21:14 48.92043 3.88004 22882 ft 452 kts 96°
2026-04-07 21:14 48.91781 3.92773 23502 ft 455 kts 96°
2026-04-07 21:14 48.91514 3.97590 24079 ft 459 kts 96°
2026-04-07 21:14 48.91243 4.02430 24597 ft 462 kts 96°
2026-04-07 21:15 48.90969 4.07305 25133 ft 464 kts 96°
2026-04-07 21:15 48.90692 4.12215 25655 ft 467 kts 96°
2026-04-07 21:15 48.90412 4.17139 26162 ft 470 kts 96°
2026-04-07 21:15 48.90036 4.22074 26609 ft 471 kts 103°
2026-04-07 21:16 48.88924 4.26743 26980 ft 469 kts 120°
2026-04-07 21:16 48.87270 4.31037 27361 ft 473 kts 122°
2026-04-07 21:16 48.85590 4.35353 27819 ft 477 kts 122°
2026-04-07 21:16 48.83918 4.39720 28319 ft 479 kts 121°
2026-04-07 21:17 48.82262 4.44119 28805 ft 481 kts 121°
2026-04-07 21:17 48.80635 4.48493 29229 ft 484 kts 120°
2026-04-07 21:17 48.78985 4.52964 29643 ft 487 kts 120°
2026-04-07 21:17 48.77333 4.57454 30055 ft 489 kts 120°
2026-04-07 21:18 48.75674 4.61959 30519 ft 489 kts 120°
2026-04-07 21:18 48.74018 4.66448 31005 ft 487 kts 120°
2026-04-07 21:18 48.72364 4.70921 31472 ft 486 kts 120°
2026-04-07 21:18 48.70711 4.75382 31894 ft 486 kts 120°
2026-04-07 21:19 48.69055 4.79837 32303 ft 485 kts 120°
2026-04-07 21:19 48.67401 4.84280 32708 ft 485 kts 120°
2026-04-07 21:19 48.65746 4.88718 33132 ft 484 kts 120°
2026-04-07 21:19 48.64090 4.93150 33538 ft 483 kts 120°
2026-04-07 21:20 48.62436 4.97569 33922 ft 483 kts 120°
2026-04-07 21:20 48.60784 5.01977 34292 ft 482 kts 120°
2026-04-07 21:20 48.59131 5.06379 34607 ft 482 kts 120°
2026-04-07 21:20 48.57476 5.10780 34920 ft 482 kts 120°
2026-04-07 21:21 48.55818 5.15181 35177 ft 483 kts 120°
2026-04-07 21:21 48.52471 5.24044 35231 ft 487 kts 120°
2026-04-07 21:22 48.49133 5.32855 35234 ft 481 kts 120°
2026-04-07 21:22 48.45812 5.41589 35262 ft 479 kts 120°
2026-04-07 21:23 48.42499 5.50277 35257 ft 478 kts 121°
2026-04-07 21:23 48.39177 5.58960 35246 ft 479 kts 121°
2026-04-07 21:24 48.35844 5.67644 35242 ft 480 kts 120°
2026-04-07 21:24 48.32501 5.76328 35239 ft 481 kts 120°
2026-04-07 21:24 48.31025 5.80835 35231 ft 482 kts 108°
2026-04-07 21:25 48.30344 5.85730 35262 ft 479 kts 97°
2026-04-07 21:25 48.29515 5.95700 35251 ft 482 kts 97°
2026-04-07 21:26 48.28649 6.05628 35236 ft 484 kts 98°
2026-04-07 21:26 48.27692 6.15660 35243 ft 486 kts 98°
2026-04-07 21:27 48.26689 6.25712 35249 ft 487 kts 98°
2026-04-07 21:27 48.25670 6.35770 35241 ft 487 kts 98°
2026-04-07 21:28 48.24647 6.45814 35247 ft 486 kts 98°
2026-04-07 21:28 48.23621 6.55822 35261 ft 485 kts 98°
2026-04-07 21:29 48.22589 6.65811 35255 ft 484 kts 98°
2026-04-07 21:29 48.21550 6.75776 35254 ft 484 kts 98°
2026-04-07 21:30 48.20502 6.85734 35263 ft 483 kts 98°
2026-04-07 21:30 48.19448 6.95676 35280 ft 483 kts 98°
2026-04-07 21:31 48.18384 7.05618 35262 ft 483 kts 98°
2026-04-07 21:31 48.17314 7.15534 35261 ft 484 kts 98°
2026-04-07 21:32 48.16230 7.25495 35276 ft 484 kts 98°
2026-04-07 21:32 48.15138 7.35445 35266 ft 484 kts 98°
2026-04-07 21:33 48.14036 7.45401 35267 ft 485 kts 98°
2026-04-07 21:33 48.12926 7.55357 35256 ft 485 kts 98°
2026-04-07 21:34 48.11807 7.65309 35258 ft 486 kts 98°
2026-04-07 21:34 48.10676 7.75277 35265 ft 486 kts 98°
2026-04-07 21:35 48.09544 7.85183 35265 ft 486 kts 98°
2026-04-07 21:35 48.08395 7.95156 35270 ft 486 kts 98°
2026-04-07 21:36 48.07231 8.05179 35281 ft 486 kts 98°
2026-04-07 21:36 48.06073 8.15078 35277 ft 486 kts 99°
2026-04-07 21:37 48.04898 8.25037 35283 ft 486 kts 99°
2026-04-07 21:37 48.03718 8.34969 35286 ft 486 kts 99°
2026-04-07 21:38 48.02528 8.44906 35282 ft 486 kts 99°
2026-04-07 21:38 48.01328 8.54840 35285 ft 486 kts 99°
2026-04-07 21:39 48.00122 8.64757 35284 ft 486 kts 99°
2026-04-07 21:39 47.98907 8.74674 35281 ft 486 kts 99°
2026-04-07 21:40 47.97681 8.84600 35279 ft 486 kts 99°
2026-04-07 21:40 47.96449 8.94511 35286 ft 486 kts 99°
2026-04-07 21:41 47.95206 9.04427 35269 ft 487 kts 99°
2026-04-07 21:41 47.93953 9.14354 35272 ft 487 kts 99°
2026-04-07 21:42 47.92691 9.24282 35272 ft 487 kts 99°
2026-04-07 21:42 47.91420 9.34209 35274 ft 488 kts 99°
2026-04-07 21:43 47.90138 9.44149 35272 ft 489 kts 99°
2026-04-07 21:43 47.88846 9.54089 35272 ft 489 kts 99°
2026-04-07 21:44 47.87543 9.64044 35275 ft 490 kts 99°
2026-04-07 21:44 47.86241 9.73928 35278 ft 490 kts 99°
2026-04-07 21:45 47.84920 9.83877 35289 ft 491 kts 99°
2026-04-07 21:45 47.83595 9.93802 35288 ft 491 kts 99°
2026-04-07 21:46 47.82255 10.03756 35290 ft 490 kts 99°
2026-04-07 21:46 47.80908 10.13696 35284 ft 490 kts 99°
2026-04-07 21:47 47.79561 10.23561 35300 ft 490 kts 99°
2026-04-07 21:47 47.78198 10.33487 35296 ft 490 kts 99°
2026-04-07 21:48 47.76826 10.43413 35303 ft 490 kts 99°
2026-04-07 21:48 47.75433 10.53413 35304 ft 491 kts 99°
2026-04-07 21:49 47.74051 10.63273 35305 ft 491 kts 99°
2026-04-07 21:49 47.72649 10.73209 35301 ft 492 kts 99°
2026-04-07 21:50 47.71236 10.83161 35299 ft 492 kts 99°
2026-04-07 21:50 47.69814 10.93107 35305 ft 492 kts 99°
2026-04-07 21:51 47.68383 11.03044 35299 ft 493 kts 99°
2026-04-07 21:51 47.66942 11.12987 35293 ft 493 kts 99°
2026-04-07 21:52 47.65494 11.22922 35289 ft 492 kts 99°
2026-04-07 21:52 47.64039 11.32835 35294 ft 492 kts 99°
2026-04-07 21:53 47.62574 11.42753 35302 ft 493 kts 99°
2026-04-07 21:53 47.61100 11.52671 35295 ft 492 kts 99°
2026-04-07 21:54 47.59618 11.62584 35286 ft 493 kts 99°
2026-04-07 21:54 47.58124 11.72502 35285 ft 493 kts 99°
2026-04-07 21:55 47.56624 11.82408 35304 ft 494 kts 99°
2026-04-07 21:55 47.55113 11.92327 35292 ft 493 kts 99°
2026-04-07 21:56 47.53596 12.02227 35301 ft 494 kts 99°
2026-04-07 21:56 47.52075 12.12134 35299 ft 493 kts 99°
2026-04-07 21:57 47.50553 12.22019 35294 ft 493 kts 99°
2026-04-07 21:57 47.49283 12.30234 35290 ft 493 kts 99°
2026-04-07 21:58 47.47747 12.40112 35293 ft 493 kts 99°
2026-04-07 21:58 47.45946 12.51596 35300 ft 494 kts 99°
2026-04-07 21:59 47.44640 12.59876 35308 ft 494 kts 99°
2026-04-07 21:59 47.43073 12.69758 35288 ft 495 kts 99°
2026-04-07 22:00 47.41495 12.79652 35294 ft 495 kts 99°
2026-04-07 22:00 47.39907 12.89547 35295 ft 495 kts 99°
2026-04-07 22:01 47.38314 12.99414 35314 ft 494 kts 99°
2026-04-07 22:01 47.36710 13.09297 35291 ft 495 kts 99°
2026-04-07 22:02 47.35096 13.19172 35280 ft 496 kts 99°
2026-04-07 22:02 47.33472 13.29058 35261 ft 495 kts 99°
2026-04-07 22:03 47.31880 13.38694 35293 ft 495 kts 99°
2026-04-07 22:03 47.29425 13.53452 35281 ft 497 kts 99°
2026-04-07 22:04 47.28396 13.59597 35266 ft 498 kts 99°
2026-04-07 22:05 47.26729 13.69508 35240 ft 499 kts 99°
2026-04-07 22:05 47.25090 13.79424 35291 ft 499 kts 99°
2026-04-07 22:06 47.23457 13.89379 35264 ft 501 kts 99°
2026-04-07 22:06 47.21807 13.99343 35260 ft 502 kts 99°
2026-04-07 22:07 47.20142 14.09309 35251 ft 501 kts 99°
2026-04-07 22:07 47.18473 14.19257 35266 ft 501 kts 99°
2026-04-07 22:08 47.16794 14.29205 35243 ft 501 kts 99°
2026-04-07 22:08 47.15104 14.39143 35240 ft 502 kts 99°
2026-04-07 22:09 47.13406 14.49082 35225 ft 502 kts 99°
2026-04-07 22:09 47.11707 14.58971 35239 ft 503 kts 99°
2026-04-07 22:10 47.09986 14.68928 35203 ft 503 kts 99°
2026-04-07 22:10 47.08257 14.78875 35220 ft 503 kts 99°
2026-04-07 22:11 47.06521 14.88812 35218 ft 503 kts 99°
2026-04-07 22:11 47.04777 14.98739 35226 ft 503 kts 99°
2026-04-07 22:12 47.03025 15.08660 35232 ft 503 kts 99°
2026-04-07 22:12 47.01260 15.18590 35237 ft 504 kts 99°
2026-04-07 22:13 46.99487 15.28515 35229 ft 504 kts 99°
2026-04-07 22:13 46.97704 15.38440 35249 ft 504 kts 99°
2026-04-07 22:14 46.95912 15.48364 35241 ft 504 kts 99°
2026-04-07 22:14 46.94114 15.58278 35228 ft 504 kts 99°
2026-04-07 22:15 46.92485 15.68216 35234 ft 502 kts 97°
2026-04-07 22:15 46.90983 15.78180 35246 ft 502 kts 97°
2026-04-07 22:16 46.89454 15.88160 35242 ft 503 kts 97°
2026-04-07 22:16 46.87889 15.98126 35234 ft 504 kts 97°
2026-04-07 22:17 46.86300 16.08102 35234 ft 504 kts 98°
2026-04-07 22:17 46.84703 16.18073 35238 ft 504 kts 98°
2026-04-07 22:18 46.83099 16.28038 35233 ft 504 kts 98°
2026-04-07 22:18 46.81486 16.38006 35233 ft 504 kts 98°
2026-04-07 22:19 46.79864 16.47963 35238 ft 504 kts 98°
2026-04-07 22:19 46.78234 16.57924 35232 ft 506 kts 98°
2026-04-07 22:20 46.76589 16.67906 35237 ft 507 kts 98°
2026-04-07 22:20 46.74941 16.77848 35238 ft 508 kts 98°
2026-04-07 22:21 46.73261 16.87929 35237 ft 509 kts 98°
2026-04-07 22:21 46.71579 16.97964 35242 ft 510 kts 98°
2026-04-07 22:22 46.69886 17.07999 35245 ft 511 kts 99°
2026-04-07 22:22 46.68190 17.17996 35239 ft 512 kts 99°
2026-04-07 22:23 46.66475 17.28050 35268 ft 512 kts 99°
2026-04-07 22:23 46.64750 17.38107 35241 ft 513 kts 99°
2026-04-07 22:24 46.63014 17.48174 35234 ft 513 kts 99°
2026-04-07 22:24 46.61250 17.58223 35227 ft 513 kts 100°
2026-04-07 22:25 46.59330 17.68241 35247 ft 515 kts 101°
2026-04-07 22:25 46.57360 17.78247 35230 ft 515 kts 101°
2026-04-07 22:26 46.55398 17.88255 35216 ft 515 kts 101°
2026-04-07 22:26 46.53441 17.98273 35217 ft 515 kts 101°
2026-04-07 22:27 46.51481 18.08273 35216 ft 516 kts 101°
2026-04-07 22:27 46.49507 18.18293 35211 ft 516 kts 101°
2026-04-07 22:28 46.47522 18.28307 35210 ft 517 kts 101°
2026-04-07 22:28 46.45523 18.38334 35210 ft 517 kts 101°
2026-04-07 22:29 46.43516 18.48361 35205 ft 519 kts 101°
2026-04-07 22:29 46.41498 18.58384 35204 ft 520 kts 101°
2026-04-07 22:30 46.39455 18.68479 35198 ft 520 kts 101°
2026-04-07 22:30 46.37410 18.78535 35127 ft 523 kts 101°
2026-04-07 22:31 46.36369 18.83654 34240 ft 535 kts 102°
2026-04-07 22:31 46.35328 18.88753 33402 ft 535 kts 102°
2026-04-07 22:31 46.34268 18.93910 32533 ft 534 kts 102°
2026-04-07 22:31 46.33207 18.99056 31700 ft 533 kts 102°
2026-04-07 22:32 46.32147 19.04182 31100 ft 528 kts 102°
2026-04-07 22:32 46.31099 19.09236 30617 ft 521 kts 102°
2026-04-07 22:32 46.30063 19.14224 30119 ft 516 kts 102°
2026-04-07 22:32 46.29035 19.19166 29536 ft 511 kts 102°
2026-04-07 22:33 46.28016 19.24058 28987 ft 505 kts 102°
2026-04-07 22:33 46.27010 19.28877 28506 ft 498 kts 102°
2026-04-07 22:33 46.26011 19.33652 28025 ft 493 kts 102°
2026-04-07 22:33 46.25023 19.38367 27532 ft 488 kts 102°
2026-04-07 22:34 46.24042 19.43033 27040 ft 483 kts 102°
2026-04-07 22:34 46.23069 19.47656 26581 ft 479 kts 102°
2026-04-07 22:34 46.22102 19.52237 26136 ft 475 kts 102°
2026-04-07 22:34 46.21142 19.56779 25671 ft 472 kts 102°
2026-04-07 22:35 46.20185 19.61302 25212 ft 471 kts 102°
2026-04-07 22:35 46.19223 19.65840 24761 ft 475 kts 102°
2026-04-07 22:35 46.18245 19.70440 24305 ft 483 kts 102°
2026-04-07 22:35 46.17240 19.75080 23818 ft 485 kts 103°
2026-04-07 22:36 46.16222 19.79697 23274 ft 481 kts 103°
2026-04-07 22:36 46.15205 19.84269 22765 ft 476 kts 103°
2026-04-07 22:36 46.14197 19.88789 22305 ft 471 kts 103°
2026-04-07 22:36 46.13203 19.93253 21850 ft 466 kts 103°
2026-04-07 22:37 46.12219 19.97675 21394 ft 461 kts 103°
2026-04-07 22:37 46.11245 20.02051 20958 ft 456 kts 103°
2026-04-07 22:37 46.10281 20.06383 20530 ft 452 kts 103°
2026-04-07 22:37 46.09324 20.10673 20102 ft 448 kts 103°
2026-04-07 22:38 46.08371 20.14935 19661 ft 444 kts 103°
2026-04-07 22:38 46.07429 20.19146 19245 ft 441 kts 103°
2026-04-07 22:38 46.06488 20.23339 18836 ft 438 kts 103°
2026-04-07 22:38 46.05566 20.27439 18399 ft 436 kts 102°
2026-04-07 22:39 46.04621 20.31632 17887 ft 433 kts 102°
2026-04-07 22:39 46.03694 20.35742 17438 ft 430 kts 102°
2026-04-07 22:39 46.02771 20.39819 16995 ft 427 kts 102°
2026-04-07 22:39 46.01854 20.43864 16560 ft 424 kts 102°
2026-04-07 22:40 46.00943 20.47875 16129 ft 420 kts 103°
2026-04-07 22:40 46.00038 20.51853 15702 ft 417 kts 103°
2026-04-07 22:40 45.99137 20.55808 15265 ft 414 kts 103°
2026-04-07 22:40 45.98253 20.59679 14839 ft 412 kts 103°
2026-04-07 22:41 45.97359 20.63592 14440 ft 412 kts 103°
2026-04-07 22:41 45.96461 20.67518 14003 ft 416 kts 103°
2026-04-07 22:41 45.95551 20.71499 13488 ft 422 kts 103°
2026-04-07 22:41 45.94631 20.75506 13013 ft 422 kts 103°
2026-04-07 22:42 45.93712 20.79489 12547 ft 418 kts 104°
2026-04-07 22:42 45.92799 20.83433 12094 ft 414 kts 104°
2026-04-07 22:42 45.91895 20.87332 11649 ft 409 kts 104°
2026-04-07 22:42 45.91003 20.91177 11209 ft 405 kts 104°
2026-04-07 22:43 45.90122 20.94970 10961 ft 394 kts 104°
2026-04-07 22:43 45.89265 20.98646 10827 ft 383 kts 104°
2026-04-07 22:43 45.88432 21.02218 10637 ft 372 kts 104°
2026-04-07 22:43 45.87623 21.05686 10486 ft 361 kts 104°
2026-04-07 22:44 45.86839 21.09044 10330 ft 350 kts 104°
2026-04-07 22:44 45.86079 21.12290 10162 ft 332 kts 104°
2026-04-07 22:44 45.85366 21.15325 9967 ft 315 kts 104°
2026-04-07 22:44 45.84676 21.18282 9639 ft 310 kts 104°
2026-04-07 22:45 45.83995 21.21200 9272 ft 308 kts 104°
2026-04-07 22:45 45.83316 21.24093 8944 ft 304 kts 104°
2026-04-07 22:45 45.82644 21.26945 8616 ft 300 kts 105°
2026-04-07 22:45 45.81981 21.29755 8307 ft 295 kts 104°
2026-04-07 22:46 45.81520 21.32570 8005 ft 288 kts 92°
2026-04-07 22:46 45.81386 21.34461 7551 ft 290 kts 89°
2026-04-07 22:46 45.81259 21.37352 6767 ft 290 kts 89°
2026-04-07 22:46 45.81137 21.40221 5979 ft 287 kts 89°
2026-04-07 22:47 45.80999 21.43057 5199 ft 284 kts 89°
2026-04-07 22:47 45.80801 21.46730 4288 ft 271 kts 89°
2026-04-07 22:47 45.80649 21.49288 4063 ft 245 kts 88°
2026-04-07 22:47 45.80553 21.50873 3958 ft 227 kts 88°
2026-04-07 22:48 45.80422 21.53029 3770 ft 209 kts 86°
2026-04-07 22:48 45.80300 21.55037 3632 ft 195 kts 86°
2026-04-07 22:48 45.80171 21.56887 3426 ft 180 kts 91°
2026-04-07 22:48 45.79853 21.58572 3196 ft 169 kts 96°
2026-04-07 22:49 45.79526 21.60152 3103 ft 164 kts 95°
2026-04-07 22:49 45.79199 21.61708 3059 ft 166 kts 96°
2026-04-07 22:49 45.78862 21.63287 3037 ft 165 kts 96°
2026-04-07 22:49 45.78521 21.64878 3046 ft 166 kts 96°
2026-04-07 22:50 45.78159 21.66435 3037 ft 168 kts 98°
2026-04-07 22:50 45.77739 21.68002 3031 ft 173 kts 110°
2026-04-07 22:50 45.76791 21.69125 3029 ft 191 kts 157°
2026-04-07 22:50 45.75435 21.69138 3064 ft 202 kts 200°
2026-04-07 22:51 45.74350 21.67991 3026 ft 191 kts 245°
2026-04-07 22:51 45.73971 21.66302 3045 ft 172 kts 272°
2026-04-07 22:51 45.73771 21.64588 3055 ft 177 kts 271°
2026-04-07 22:51 45.73788 21.62904 3032 ft 162 kts 297°
2026-04-07 22:52 45.74121 21.61378 3055 ft 160 kts 297°
2026-04-07 22:52 45.74446 21.59884 3051 ft 155 kts 299°
2026-04-07 22:52 45.74793 21.58431 3041 ft 155 kts 300°
2026-04-07 22:52 45.75155 21.56965 3054 ft 156 kts 301°
2026-04-07 22:53 45.75525 21.55494 3024 ft 158 kts 301°
2026-04-07 22:53 45.75896 21.54014 3013 ft 157 kts 301°
2026-04-07 22:53 45.76269 21.52527 2821 ft 159 kts 301°
2026-04-07 22:53 45.76639 21.51054 2594 ft 156 kts 302°
2026-04-07 22:54 45.77002 21.49609 2390 ft 153 kts 302°
2026-04-07 22:54 45.77362 21.48179 2176 ft 152 kts 302°
2026-04-07 22:54 45.77720 21.46760 1976 ft 152 kts 302°
2026-04-07 22:54 45.78079 21.45334 1761 ft 152 kts 301°
2026-04-07 22:55 45.78440 21.43899 1533 ft 153 kts 300°
2026-04-07 22:55 45.78804 21.42453 1342 ft 155 kts 299°
2026-04-07 22:55 45.79167 21.41009 1101 ft 153 kts 295°
2026-04-07 22:55 45.79519 21.39592 906 ft 148 kts 293°
2026-04-07 22:56 45.79857 21.38223 706 ft 145 kts 293°
2026-04-07 22:56 45.80205 21.36845 539 ft 146 kts 292°
2026-04-07 22:56 45.80559 21.35454 370 ft 149 kts 292°
2026-04-07 22:56 45.80880 21.34178 353 ft 124 kts 292°
2026-04-07 22:57 45.81132 21.33186 353 ft 88 kts 290°
2026-04-07 22:57 45.81299 21.32525 352 ft 54 kts 290°
2026-04-07 22:57 45.81374 21.32216 356 ft 9 kts 288°
2026-04-07 22:57 45.81365 21.32163 357 ft 5 kts 221°
2026-04-07 22:58 45.81330 21.32136 355 ft 6 kts 205°
2026-04-07 22:58 45.81304 21.32120 357 ft 3 kts 201°
2026-04-07 22:58 45.81281 21.32109 354 ft 4 kts 199°
2026-04-07 22:58 45.81255 21.32095 351 ft 4 kts 200°
2026-04-07 22:59 45.81228 21.32081 352 ft 4 kts 200°
2026-04-07 22:59 45.81198 21.32065 354 ft 5 kts 200°
2026-04-07 22:59 45.81166 21.32050 356 ft 5 kts 192°
2026-04-07 22:59 45.81133 21.32055 350 ft 5 kts 167°
2026-04-07 23:00 45.81102 21.32077 354 ft 5 kts 138°
2026-04-07 23:00 45.81085 21.32119 354 ft 5 kts 111°
2026-04-07 23:00 45.81074 21.32166 351 ft 5 kts 109°
2026-04-07 23:00 45.81063 21.32213 350 ft 5 kts 110°
2026-04-07 23:01 45.81068 21.32256 348 ft 4 kts 52°
2026-04-07 23:01 45.81089 21.32259 348 ft 3 kts 339°
2026-04-07 23:01 45.81109 21.32248 355 ft 3 kts 338°
2026-04-07 23:02 45.81135 21.32236 354 ft 2 kts 346°
2026-04-07 23:02 45.81142 21.32233 350 ft 0 kts 345°